createdAt,value
2018-12-29T00:00:27.088Z,5.13
2018-12-29T00:02:57.833Z,5.22
2018-12-29T00:05:30.255Z,5.17
2018-12-29T00:08:03.257Z,5.10
2018-12-29T00:10:40.988Z,5.00
2018-12-29T00:13:12.448Z,5.12
2018-12-29T00:15:44.184Z,5.11
2018-12-29T00:18:17.572Z,5.17
2018-12-29T00:20:48.670Z,5.16
2018-12-29T00:23:19.614Z,5.18
2018-12-29T00:25:50.430Z,5.19
2018-12-29T00:28:21.491Z,5.16
2018-12-29T00:30:58.043Z,5.14
2018-12-29T00:33:31.974Z,5.19
2018-12-29T00:36:02.739Z,5.16
2018-12-29T00:38:35.648Z,5.20
2018-12-29T00:41:06.402Z,5.23
2018-12-29T00:43:38.300Z,5.12
2018-12-29T00:46:09.527Z,5.15
2018-12-29T00:48:40.682Z,5.13
2018-12-29T00:51:12.294Z,5.16
2018-12-29T00:53:47.144Z,5.14
2018-12-29T00:56:17.791Z,5.16
2018-12-29T00:59:14.041Z,5.13
2018-12-29T01:01:44.673Z,5.21
2018-12-29T01:04:15.335Z,5.11
2018-12-29T01:06:48.268Z,5.13
2018-12-29T01:09:18.973Z,5.09
2018-12-29T01:11:50.044Z,5.17
2018-12-29T01:14:20.730Z,5.03
2018-12-29T01:16:51.939Z,5.12
2018-12-29T01:19:22.458Z,5.16
2018-12-29T01:21:52.733Z,5.09
2018-12-29T01:24:23.387Z,5.13
2018-12-29T01:26:53.678Z,5.16
2018-12-29T01:29:23.814Z,5.19
2018-12-29T01:31:54.042Z,5.12
2018-12-29T01:34:24.343Z,5.06
2018-12-29T01:36:54.620Z,5.05
2018-12-29T01:39:25.123Z,5.22
2018-12-29T01:41:55.437Z,5.15
2018-12-29T01:44:25.672Z,5.15
2018-12-29T01:46:56.329Z,5.19
2018-12-29T01:49:26.595Z,5.19
2018-12-29T01:51:56.945Z,5.21
2018-12-29T01:54:27.396Z,5.11
2018-12-29T01:56:57.701Z,5.19
2018-12-29T01:59:28.774Z,5.05
2018-12-29T02:01:59.117Z,5.12
2018-12-29T02:04:29.988Z,5.14
2018-12-29T02:07:00.272Z,5.21
2018-12-29T02:09:30.557Z,5.16
2018-12-29T02:12:01.055Z,5.14
2018-12-29T02:14:31.389Z,5.18
2018-12-29T02:17:01.946Z,5.24
2018-12-29T02:19:32.235Z,5.09
2018-12-29T02:22:02.502Z,5.02
2018-12-29T02:24:32.853Z,5.14
2018-12-29T02:27:03.108Z,5.14
2018-12-29T02:29:33.489Z,5.05
2018-12-29T02:32:03.758Z,5.04
2018-12-29T02:34:33.990Z,5.11
2018-12-29T02:37:04.304Z,5.14
2018-12-29T02:39:34.633Z,5.09
2018-12-29T02:42:05.030Z,5.04
2018-12-29T02:44:35.245Z,5.12
2018-12-29T02:47:05.942Z,5.01
2018-12-29T02:49:36.176Z,5.01
2018-12-29T02:52:06.778Z,5.06
2018-12-29T02:54:37.588Z,5.10
2018-12-29T02:57:07.924Z,5.07
2018-12-29T02:59:38.477Z,5.17
2018-12-29T03:02:11.789Z,5.01
2018-12-29T03:04:42.071Z,5.02
2018-12-29T03:07:12.514Z,5.09
2018-12-29T03:09:42.804Z,5.06
2018-12-29T03:12:13.374Z,5.02
2018-12-29T03:14:43.819Z,4.99
2018-12-29T03:17:17.144Z,5.07
2018-12-29T03:19:47.485Z,4.98
2018-12-29T03:22:17.785Z,4.97
2018-12-29T03:24:48.115Z,4.94
2018-12-29T03:27:18.469Z,4.80
2018-12-29T03:29:48.724Z,4.80
2018-12-29T03:32:53.479Z,4.83
2018-12-29T03:35:23.719Z,4.80
2018-12-29T03:37:54.097Z,4.77
2018-12-29T03:40:24.476Z,4.80
2018-12-29T03:42:55.178Z,4.69
2018-12-29T03:45:25.448Z,4.69
2018-12-29T03:47:55.858Z,4.70
2018-12-29T03:50:26.221Z,4.66
2018-12-29T03:52:56.615Z,4.63
2018-12-29T03:55:26.956Z,4.70
2018-12-29T03:57:57.280Z,4.71
2018-12-29T04:00:28.304Z,4.75
2018-12-29T04:02:58.615Z,4.64
2018-12-29T04:05:28.955Z,4.69
2018-12-29T04:07:59.204Z,4.71
2018-12-29T04:10:29.548Z,4.63
2018-12-29T04:13:01.553Z,4.62
2018-12-29T04:15:31.844Z,4.66
2018-12-29T04:18:02.242Z,4.59
2018-12-29T04:20:32.515Z,4.65
2018-12-29T04:23:03.088Z,4.63
2018-12-29T04:25:33.939Z,4.58
2018-12-29T04:28:04.673Z,4.51
2018-12-29T04:30:35.414Z,4.44
2018-12-29T04:33:05.727Z,4.42
2018-12-29T04:35:36.642Z,4.47
2018-12-29T04:38:07.611Z,4.44
2018-12-29T04:40:38.146Z,4.46
2018-12-29T04:43:08.565Z,4.35
2018-12-29T04:45:39.669Z,4.46
2018-12-29T04:48:10.109Z,4.51
2018-12-29T04:50:40.832Z,4.61
2018-12-29T04:53:11.116Z,4.57
2018-12-29T04:55:41.970Z,4.54
2018-12-29T04:58:12.335Z,4.64
2018-12-29T05:00:42.790Z,4.73
2018-12-29T05:03:13.061Z,4.74
2018-12-29T05:05:43.506Z,4.69
2018-12-29T05:08:15.051Z,4.75
2018-12-29T05:10:45.301Z,4.70
2018-12-29T05:13:15.562Z,4.82
2018-12-29T05:15:45.957Z,4.80
2018-12-29T05:18:16.267Z,4.83
2018-12-29T05:20:46.582Z,4.83
2018-12-29T05:23:17.022Z,4.79
2018-12-29T05:25:47.313Z,4.73
2018-12-29T05:28:17.537Z,4.73
2018-12-29T05:30:48.038Z,4.79
2018-12-29T05:33:18.348Z,4.76
2018-12-29T05:35:51.365Z,4.79
2018-12-29T05:38:21.688Z,4.71
2018-12-29T05:40:53.241Z,4.71
2018-12-29T05:43:23.579Z,4.72
2018-12-29T05:45:53.984Z,4.75
2018-12-29T05:48:24.618Z,4.71
2018-12-29T05:50:59.659Z,4.77
2018-12-29T05:53:29.908Z,4.72
2018-12-29T05:56:00.598Z,4.71
2018-12-29T05:58:30.996Z,4.65
2018-12-29T06:01:01.386Z,4.70
2018-12-29T06:03:31.843Z,4.69
2018-12-29T06:06:49.253Z,4.74
2018-12-29T06:09:20.950Z,4.76
2018-12-29T06:11:52.326Z,4.57
2018-12-29T06:14:22.551Z,4.71
2018-12-29T06:16:54.420Z,4.69
2018-12-29T06:19:24.802Z,4.79
2018-12-29T06:21:55.119Z,4.78
2018-12-29T06:24:25.790Z,4.76
2018-12-29T06:26:56.144Z,4.73
2018-12-29T06:29:26.343Z,4.65
2018-12-29T06:31:57.342Z,4.63
2018-12-29T06:34:27.817Z,4.60
2018-12-29T06:36:58.548Z,4.60
2018-12-29T06:39:29.009Z,4.58
2018-12-29T06:41:59.518Z,4.49
2018-12-29T06:44:30.066Z,4.48
2018-12-29T06:47:00.459Z,4.46
2018-12-29T06:49:30.593Z,4.35
2018-12-29T06:52:00.991Z,4.42
2018-12-29T06:54:31.662Z,4.35
2018-12-29T06:57:02.036Z,4.33
2018-12-29T06:59:32.463Z,4.37
2018-12-29T07:02:02.879Z,4.23
2018-12-29T07:04:33.275Z,4.30
2018-12-29T07:07:03.602Z,4.24
2018-12-29T07:09:34.072Z,4.24
2018-12-29T07:12:04.926Z,4.24
2018-12-29T07:14:35.170Z,4.14
2018-12-29T07:17:06.140Z,4.18
2018-12-29T07:19:36.428Z,4.18
2018-12-29T07:22:06.757Z,4.25
2018-12-29T07:24:37.443Z,4.20
2018-12-29T07:27:07.717Z,4.30
2018-12-29T07:29:38.604Z,4.28
2018-12-29T07:32:08.916Z,4.33
2018-12-29T07:34:39.442Z,4.34
2018-12-29T07:37:10.006Z,4.29
2018-12-29T07:39:40.311Z,4.28
2018-12-29T07:42:10.987Z,4.27
2018-12-29T07:44:41.195Z,4.36
2018-12-29T07:47:12.892Z,4.33
2018-12-29T07:49:43.392Z,4.31
2018-12-29T07:52:13.734Z,4.31
2018-12-29T07:54:44.317Z,4.29
2018-12-29T07:57:14.741Z,4.21
2018-12-29T07:59:44.986Z,4.37
2018-12-29T08:02:15.240Z,4.35
2018-12-29T08:04:46.080Z,4.26
2018-12-29T08:07:16.591Z,4.27
2018-12-29T08:09:47.564Z,4.32
2018-12-29T08:12:18.165Z,4.38
2018-12-29T08:14:49.879Z,4.36
2018-12-29T08:17:20.271Z,4.31
2018-12-29T08:19:50.562Z,4.39
2018-12-29T08:22:20.878Z,4.37
2018-12-29T08:24:51.409Z,4.46
2018-12-29T08:27:21.866Z,4.46
2018-12-29T08:29:52.235Z,4.58
2018-12-29T08:32:22.535Z,4.56
2018-12-29T08:34:53.455Z,4.55
2018-12-29T08:37:24.734Z,4.60
2018-12-29T08:40:18.306Z,4.63
2018-12-29T08:42:48.621Z,4.54
2018-12-29T08:45:18.957Z,4.55
2018-12-29T08:47:49.267Z,4.54
2018-12-29T08:50:19.870Z,4.71
2018-12-29T08:52:50.296Z,4.69
2018-12-29T08:55:20.516Z,4.66
2018-12-29T08:57:50.823Z,4.60
2018-12-29T09:00:21.281Z,4.66
2018-12-29T09:02:51.698Z,4.73
2018-12-29T09:05:21.941Z,4.79
2018-12-29T09:07:52.621Z,4.87
2018-12-29T09:10:22.929Z,4.90
2018-12-29T09:12:53.270Z,4.99
2018-12-29T09:15:23.757Z,5.00
2018-12-29T09:17:54.069Z,5.10
2018-12-29T09:20:24.654Z,5.20
2018-12-29T09:22:55.497Z,5.20
2018-12-29T09:25:26.733Z,5.31
2018-12-29T09:27:57.119Z,5.32
2018-12-29T09:30:27.420Z,5.22
2018-12-29T09:32:57.742Z,5.07
2018-12-29T09:35:28.514Z,5.29
2018-12-29T09:37:58.947Z,5.35
2018-12-29T09:40:29.236Z,5.47
2018-12-29T09:42:59.659Z,5.57
2018-12-29T09:45:30.429Z,5.66
2018-12-29T09:48:01.209Z,5.59
2018-12-29T09:50:31.910Z,5.49
2018-12-29T09:53:02.297Z,5.62
2018-12-29T09:55:32.577Z,5.69
2018-12-29T09:58:02.900Z,5.74
2018-12-29T10:00:33.724Z,5.80
2018-12-29T10:03:04.107Z,5.71
2018-12-29T10:05:34.528Z,5.87
2018-12-29T10:08:04.853Z,5.80
2018-12-29T10:10:36.582Z,5.96
2018-12-29T10:13:07.345Z,5.96
2018-12-29T10:15:38.064Z,5.90
2018-12-29T10:18:09.549Z,6.12
2018-12-29T10:20:39.941Z,6.07
2018-12-29T10:23:10.273Z,6.06
2018-12-29T10:25:40.763Z,6.21
2018-12-29T10:28:14.518Z,6.25
2018-12-29T10:30:46.811Z,6.08
2018-12-29T10:33:18.141Z,6.47
2018-12-29T10:35:49.270Z,6.43
2018-12-29T10:38:19.668Z,6.47
2018-12-29T10:40:50.285Z,6.55
2018-12-29T10:43:20.543Z,6.57
2018-12-29T10:45:50.920Z,6.59
2018-12-29T10:48:21.184Z,6.77
2018-12-29T10:50:51.718Z,7.15
2018-12-29T10:53:21.874Z,7.72
2018-12-29T10:55:52.403Z,7.99
2018-12-29T10:58:22.696Z,8.10
2018-12-29T11:00:53.966Z,8.21
2018-12-29T11:03:24.226Z,8.09
2018-12-29T11:05:54.552Z,7.90
2018-12-29T11:08:26.789Z,7.56
2018-12-29T11:10:57.077Z,7.38
2018-12-29T11:17:09.719Z,6.91
2018-12-29T11:19:40.014Z,6.78
2018-12-29T11:22:10.326Z,6.52
2018-12-29T11:24:40.727Z,6.41
2018-12-29T11:27:11.265Z,6.62
2018-12-29T11:29:42.305Z,6.83
2018-12-29T11:32:12.551Z,6.82
2018-12-29T11:34:43.353Z,6.83
2018-12-29T11:37:13.726Z,6.89
2018-12-29T11:39:44.065Z,6.84
2018-12-29T11:42:14.349Z,6.70
2018-12-29T11:44:44.723Z,6.73
2018-12-29T11:47:15.139Z,6.56
2018-12-29T11:49:45.799Z,6.71
2018-12-29T11:52:16.131Z,6.73
2018-12-29T11:54:46.471Z,6.76
2018-12-29T11:57:16.682Z,6.51
2018-12-29T11:59:47.057Z,6.54
2018-12-29T12:02:24.317Z,6.54
2018-12-29T12:04:49.409Z,6.53
2018-12-29T12:07:19.734Z,6.69
2018-12-29T12:09:50.184Z,6.64
2018-12-29T12:12:20.634Z,6.63
2018-12-29T12:14:51.295Z,6.59
2018-12-29T12:17:22.750Z,6.53
2018-12-29T12:19:53.117Z,6.71
2018-12-29T12:22:23.515Z,6.88
2018-12-29T12:24:55.084Z,6.60
2018-12-29T12:27:25.425Z,6.49
2018-12-29T12:29:55.931Z,6.60
2018-12-29T12:32:26.559Z,6.58
2018-12-29T12:34:58.056Z,6.49
2018-12-29T12:37:28.308Z,6.56
2018-12-29T12:39:58.963Z,6.48
2018-12-29T12:42:29.675Z,6.62
2018-12-29T12:45:00.686Z,6.63
2018-12-29T12:47:31.131Z,6.68
2018-12-29T12:50:01.505Z,6.92
2018-12-29T12:52:32.164Z,7.04
2018-12-29T12:55:02.845Z,7.25
2018-12-29T12:57:33.335Z,7.23
2018-12-29T13:00:03.860Z,7.34
2018-12-29T13:02:34.531Z,7.21
2018-12-29T13:05:04.891Z,7.29
2018-12-29T13:07:36.191Z,7.00
2018-12-29T13:10:10.069Z,7.17
2018-12-29T13:12:40.505Z,7.16
2018-12-29T13:15:11.204Z,7.14
2018-12-29T13:17:43.795Z,7.17
2018-12-29T13:20:14.442Z,6.95
2018-12-29T13:22:49.156Z,6.97
2018-12-29T13:25:23.013Z,7.09
2018-12-29T13:27:54.923Z,7.08
2018-12-29T13:30:25.604Z,6.93
2018-12-29T13:32:56.104Z,7.03
2018-12-29T13:35:27.079Z,6.98
2018-12-29T13:37:59.284Z,7.05
2018-12-29T13:40:29.522Z,7.11
2018-12-29T13:43:00.386Z,7.14
2018-12-29T13:45:30.584Z,7.11
2018-12-29T13:48:00.657Z,7.12
2018-12-29T13:50:31.057Z,7.16
2018-12-29T13:53:01.717Z,7.07
2018-12-29T13:55:32.558Z,6.94
2018-12-29T13:58:02.930Z,6.87
2018-12-29T14:00:33.423Z,6.82
2018-12-29T14:03:03.727Z,6.74
2018-12-29T14:05:34.484Z,6.77
2018-12-29T14:08:05.160Z,6.68
2018-12-29T14:10:35.947Z,6.65
2018-12-29T14:13:06.350Z,6.51
2018-12-29T14:15:37.863Z,6.57
2018-12-29T14:18:08.444Z,6.58
2018-12-29T14:20:38.924Z,6.45
2018-12-29T14:23:09.961Z,6.44
2018-12-29T14:25:40.768Z,6.52
2018-12-29T14:28:11.131Z,6.51
2018-12-29T14:30:41.331Z,6.51
2018-12-29T14:33:15.234Z,6.58
2018-12-29T14:35:45.563Z,6.44
2018-12-29T14:38:16.000Z,6.44
2018-12-29T14:40:46.416Z,6.51
2018-12-29T14:43:16.590Z,6.59
2018-12-29T14:45:46.951Z,6.58
2018-12-29T14:48:17.243Z,6.51
2018-12-29T14:50:47.821Z,6.50
2018-12-29T14:53:18.314Z,6.53
2018-12-29T14:55:48.702Z,6.48
2018-12-29T14:58:20.742Z,6.38
2018-12-29T15:00:55.282Z,6.35
2018-12-29T15:03:26.319Z,6.33
2018-12-29T15:05:59.153Z,6.29
2018-12-29T15:08:29.825Z,6.30
2018-12-29T15:11:01.525Z,6.23
2018-12-29T15:13:32.691Z,6.16
2018-12-29T15:16:07.108Z,6.11
2018-12-29T15:18:43.527Z,6.14
2018-12-29T15:21:14.622Z,6.09
2018-12-29T15:23:48.063Z,6.03
2018-12-29T15:26:20.312Z,6.05
2018-12-29T15:28:50.882Z,6.12
2018-12-29T15:31:22.170Z,6.06
2018-12-29T15:33:57.883Z,5.94
2018-12-29T15:36:29.121Z,5.95
2018-12-29T15:38:59.586Z,5.95
2018-12-29T15:41:30.626Z,5.93
2018-12-29T15:44:01.930Z,5.94
2018-12-29T15:46:32.628Z,5.99
2018-12-29T15:49:03.323Z,5.94
2018-12-29T15:51:33.909Z,5.96
2018-12-29T15:54:04.400Z,5.96
2018-12-29T15:56:35.639Z,5.89
2018-12-29T15:59:06.194Z,5.93
2018-12-29T16:01:36.637Z,5.98
2018-12-29T16:04:07.076Z,6.05
2018-12-29T16:06:37.667Z,6.07
2018-12-29T16:09:09.127Z,6.04
2018-12-29T16:11:39.962Z,6.03
2018-12-29T16:14:10.420Z,6.17
2018-12-29T16:16:40.871Z,6.11
2018-12-29T16:19:11.529Z,6.03
2018-12-29T16:21:51.061Z,6.14
2018-12-29T16:24:22.102Z,6.09
2018-12-29T16:26:52.715Z,6.19
2018-12-29T16:29:23.207Z,6.17
2018-12-29T16:31:53.880Z,6.18
2018-12-29T16:34:24.303Z,6.15
2018-12-29T16:36:54.727Z,6.18
2018-12-29T16:39:25.415Z,6.43
2018-12-29T16:41:56.463Z,6.29
2018-12-29T16:44:26.935Z,6.31
2018-12-29T16:46:57.397Z,6.26
2018-12-29T16:49:28.162Z,6.29
2018-12-29T16:51:59.198Z,6.41
2018-12-29T16:54:30.282Z,6.29
2018-12-29T16:57:03.336Z,6.36
2018-12-29T16:59:34.842Z,6.39
2018-12-29T17:02:05.939Z,6.39
2018-12-29T17:04:36.595Z,6.40
2018-12-29T17:07:06.882Z,6.37
2018-12-29T17:09:37.741Z,6.39
2018-12-29T17:12:08.885Z,6.35
2018-12-29T17:14:39.447Z,6.31
2018-12-29T17:17:09.846Z,6.42
2018-12-29T17:19:40.618Z,6.44
2018-12-29T17:22:11.400Z,6.37
2018-12-29T17:24:41.896Z,6.45
2018-12-29T17:27:12.721Z,6.46
2018-12-29T17:29:43.386Z,6.51
2018-12-29T17:32:13.991Z,6.58
2018-12-29T17:34:44.538Z,6.63
2018-12-29T17:37:15.126Z,6.70
2018-12-29T17:39:46.323Z,6.65
2018-12-29T17:42:17.052Z,6.67
2018-12-29T17:44:47.932Z,6.64
2018-12-29T17:47:18.528Z,6.68
2018-12-29T17:49:49.174Z,6.61
2018-12-29T17:52:19.737Z,6.69
2018-12-29T17:54:50.111Z,6.57
2018-12-29T17:57:20.690Z,6.63
2018-12-29T17:59:51.056Z,6.64
2018-12-29T18:02:21.462Z,6.69
2018-12-29T18:04:51.863Z,6.63
2018-12-29T18:07:22.476Z,6.65
2018-12-29T18:09:57.126Z,6.60
2018-12-29T18:12:25.575Z,6.62
2018-12-29T18:14:56.350Z,6.53
2018-12-29T18:17:30.088Z,6.51
2018-12-29T18:20:00.580Z,6.52
2018-12-29T18:22:31.034Z,6.46
2018-12-29T18:25:01.787Z,6.49
2018-12-29T18:27:32.234Z,6.52
2018-12-29T18:30:02.703Z,6.31
2018-12-29T18:32:33.218Z,6.43
2018-12-29T18:35:04.636Z,6.31
2018-12-29T18:37:35.039Z,6.23
2018-12-29T18:40:07.433Z,6.13
2018-12-29T18:42:37.721Z,6.16
2018-12-29T18:45:08.201Z,6.07
2018-12-29T18:47:39.259Z,6.15
2018-12-29T18:50:09.788Z,6.14
2018-12-29T18:52:40.305Z,5.99
2018-12-29T18:55:13.984Z,5.83
2018-12-29T18:57:46.375Z,5.41
2018-12-29T19:00:17.130Z,5.22
2018-12-29T19:02:47.959Z,4.99
2018-12-29T19:05:18.604Z,4.98
2018-12-29T19:07:49.978Z,4.96
2018-12-29T19:10:21.704Z,4.84
2018-12-29T19:12:52.243Z,4.84
2018-12-29T19:15:23.390Z,4.83
2018-12-29T19:17:54.490Z,4.87
2018-12-29T19:20:27.470Z,4.78
2018-12-29T19:23:01.694Z,4.81
2018-12-29T19:25:34.022Z,4.92
2018-12-29T19:28:05.038Z,4.80
2018-12-29T19:30:37.581Z,4.90
2018-12-29T19:33:08.710Z,4.84
2018-12-29T19:35:40.662Z,4.82
2018-12-29T19:38:11.381Z,4.78
2018-12-29T19:40:42.792Z,4.81
2018-12-29T19:43:14.813Z,4.70
2018-12-29T19:45:45.253Z,4.59
2018-12-29T19:48:15.637Z,4.64
2018-12-29T19:50:46.693Z,4.72
2018-12-29T19:53:18.051Z,4.66
2018-12-29T19:55:49.135Z,4.67
2018-12-29T19:58:20.612Z,4.71
2018-12-29T20:00:52.094Z,4.72
2018-12-29T20:03:23.067Z,4.75
2018-12-29T20:05:53.970Z,4.67
2018-12-29T20:08:25.629Z,4.62
2018-12-29T20:10:58.761Z,4.66
2018-12-29T20:13:29.327Z,4.66
2018-12-29T20:15:59.788Z,4.68
2018-12-29T20:18:31.168Z,4.80
2018-12-29T20:21:02.731Z,4.73
2018-12-29T20:23:33.312Z,4.74
2018-12-29T20:26:03.933Z,4.76
2018-12-29T20:28:35.041Z,4.81
2018-12-29T20:31:06.432Z,4.83
2018-12-29T20:33:37.498Z,4.86
2018-12-29T20:36:08.092Z,4.84
2018-12-29T20:38:38.726Z,4.82
2018-12-29T20:41:09.191Z,4.87
2018-12-29T20:43:39.738Z,4.94
2018-12-29T20:46:10.471Z,4.95
2018-12-29T20:48:40.967Z,5.00
2018-12-29T20:51:11.458Z,5.09
2018-12-29T20:53:42.085Z,5.06
2018-12-29T20:56:18.243Z,5.17
2018-12-29T20:58:53.186Z,5.12
2018-12-29T21:01:23.891Z,5.11
2018-12-29T21:03:56.175Z,5.24
2018-12-29T21:06:27.109Z,5.28
2018-12-29T21:08:57.620Z,5.27
2018-12-29T21:11:28.545Z,5.36
2018-12-29T21:13:58.966Z,5.24
2018-12-29T21:16:29.355Z,5.45
2018-12-29T21:18:59.887Z,5.41
2018-12-29T21:21:30.444Z,5.50
2018-12-29T21:24:01.579Z,5.54
2018-12-29T21:26:32.213Z,5.48
2018-12-29T21:31:52.791Z,5.47
2018-12-29T21:34:23.281Z,5.49
2018-12-29T21:36:53.845Z,5.50
2018-12-29T21:39:24.260Z,5.46
2018-12-29T21:41:55.868Z,5.38
2018-12-29T21:44:26.302Z,5.32
2018-12-29T21:46:56.817Z,5.29
2018-12-29T21:49:27.269Z,5.29
2018-12-29T21:51:57.857Z,5.43
2018-12-29T21:54:28.289Z,5.48
2018-12-29T21:56:58.621Z,5.37
2018-12-29T21:59:29.572Z,5.41
2018-12-29T22:02:01.234Z,5.45
2018-12-29T22:04:32.065Z,5.43
2018-12-29T22:07:02.555Z,5.43
2018-12-29T22:09:33.654Z,5.45
2018-12-29T22:12:04.218Z,5.50
2018-12-29T22:14:35.578Z,5.55
2018-12-29T22:17:06.107Z,5.51
2018-12-29T22:19:36.617Z,5.61
2018-12-29T22:22:06.969Z,5.70
2018-12-29T22:24:37.454Z,5.68
2018-12-29T22:27:07.993Z,5.75
2018-12-29T22:29:38.527Z,5.83
2018-12-29T22:32:09.196Z,5.83
2018-12-29T22:34:39.865Z,5.82
2018-12-29T22:37:15.279Z,5.84
2018-12-29T22:39:46.263Z,5.85
2018-12-29T22:42:19.909Z,5.89
2018-12-29T22:45:31.507Z,5.86
2018-12-29T22:48:06.195Z,5.93
2018-12-29T22:50:41.095Z,6.02
2018-12-29T22:53:12.427Z,6.01
2018-12-29T22:55:42.832Z,6.10
2018-12-29T22:58:14.438Z,6.08
2018-12-29T23:00:46.093Z,6.08
2018-12-29T23:03:16.862Z,6.04
2018-12-29T23:05:47.554Z,6.07
2018-12-29T23:08:18.043Z,6.06
2018-12-29T23:10:49.601Z,6.04
2018-12-29T23:13:20.104Z,6.09
2018-12-29T23:15:50.916Z,6.10
2018-12-29T23:18:21.529Z,6.17
2018-12-29T23:20:52.179Z,6.15
2018-12-29T23:23:23.065Z,6.22
2018-12-29T23:25:53.758Z,6.26
2018-12-29T23:28:26.072Z,6.26
2018-12-29T23:30:57.140Z,6.32
2018-12-29T23:33:27.705Z,6.32
2018-12-29T23:36:01.064Z,6.35
2018-12-29T23:38:31.600Z,6.40
2018-12-29T23:41:02.297Z,6.42
2018-12-29T23:43:33.035Z,6.38
2018-12-29T23:46:04.851Z,6.42
2018-12-29T23:48:35.249Z,6.39
2018-12-29T23:51:06.024Z,6.51
2018-12-29T23:53:37.303Z,6.37
2018-12-29T23:56:08.545Z,6.48
2018-12-29T23:58:39.288Z,6.47
